sensor_id;sensor_type;location;lat;lon;timestamp;P1;durP1;ratioP1;P2;durP2;ratioP2
43996;SDS011;34318;45.818;15.964;2022-10-16T00:01:59;32.42;;;24.95;;
43996;SDS011;34318;45.818;15.964;2022-10-16T00:04:26;30.00;;;23.60;;
43996;SDS011;34318;45.818;15.964;2022-10-16T00:06:54;30.83;;;23.95;;
43996;SDS011;34318;45.818;15.964;2022-10-16T00:09:21;34.15;;;24.67;;
43996;SDS011;34318;45.818;15.964;2022-10-16T00:11:48;30.88;;;24.02;;
43996;SDS011;34318;45.818;15.964;2022-10-16T00:14:16;29.42;;;23.92;;
43996;SDS011;34318;45.818;15.964;2022-10-16T00:16:43;32.70;;;24.55;;
43996;SDS011;34318;45.818;15.964;2022-10-16T00:19:11;37.58;;;24.77;;
43996;SDS011;34318;45.818;15.964;2022-10-16T00:21:38;29.92;;;23.10;;
43996;SDS011;34318;45.818;15.964;2022-10-16T00:24:06;33.63;;;23.83;;
43996;SDS011;34318;45.818;15.964;2022-10-16T00:26:38;29.30;;;22.63;;
43996;SDS011;34318;45.818;15.964;2022-10-16T00:29:05;25.98;;;21.17;;
43996;SDS011;34318;45.818;15.964;2022-10-16T00:31:32;25.85;;;21.83;;
43996;SDS011;34318;45.818;15.964;2022-10-16T00:34:00;29.30;;;23.60;;
43996;SDS011;34318;45.818;15.964;2022-10-16T00:36:27;32.38;;;24.27;;
43996;SDS011;34318;45.818;15.964;2022-10-16T00:38:55;27.95;;;22.35;;
43996;SDS011;34318;45.818;15.964;2022-10-16T00:41:23;28.58;;;21.45;;
43996;SDS011;34318;45.818;15.964;2022-10-16T00:43:55;26.20;;;21.65;;
43996;SDS011;34318;45.818;15.964;2022-10-16T00:46:23;24.67;;;21.83;;
43996;SDS011;34318;45.818;15.964;2022-10-16T00:51:19;28.77;;;22.85;;
43996;SDS011;34318;45.818;15.964;2022-10-16T00:53:48;26.70;;;20.13;;
43996;SDS011;34318;45.818;15.964;2022-10-16T00:56:15;24.33;;;21.33;;
43996;SDS011;34318;45.818;15.964;2022-10-16T00:58:43;27.95;;;21.42;;
43996;SDS011;34318;45.818;15.964;2022-10-16T01:01:10;26.52;;;19.95;;
43996;SDS011;34318;45.818;15.964;2022-10-16T01:03:37;27.23;;;21.85;;
43996;SDS011;34318;45.818;15.964;2022-10-16T01:08:39;28.60;;;21.73;;
43996;SDS011;34318;45.818;15.964;2022-10-16T01:11:12;26.17;;;21.98;;
43996;SDS011;34318;45.818;15.964;2022-10-16T01:13:42;24.55;;;20.75;;
43996;SDS011;34318;45.818;15.964;2022-10-16T01:16:13;24.05;;;19.33;;
43996;SDS011;34318;45.818;15.964;2022-10-16T01:18:43;22.98;;;20.20;;
43996;SDS011;34318;45.818;15.964;2022-10-16T01:21:16;22.35;;;18.77;;
43996;SDS011;34318;45.818;15.964;2022-10-16T01:24:08;26.25;;;19.77;;
43996;SDS011;34318;45.818;15.964;2022-10-16T01:29:13;23.80;;;19.85;;
43996;SDS011;34318;45.818;15.964;2022-10-16T01:31:42;23.10;;;19.02;;
43996;SDS011;34318;45.818;15.964;2022-10-16T01:34:15;21.83;;;19.38;;
43996;SDS011;34318;45.818;15.964;2022-10-16T01:36:51;24.65;;;19.25;;
43996;SDS011;34318;45.818;15.964;2022-10-16T01:39:22;23.00;;;18.77;;
43996;SDS011;34318;45.818;15.964;2022-10-16T01:41:58;20.23;;;17.95;;
43996;SDS011;34318;45.818;15.964;2022-10-16T01:44:29;23.98;;;19.80;;
43996;SDS011;34318;45.818;15.964;2022-10-16T01:46:57;20.58;;;18.48;;
43996;SDS011;34318;45.818;15.964;2022-10-16T01:49:27;21.77;;;18.77;;
43996;SDS011;34318;45.818;15.964;2022-10-16T01:51:56;20.20;;;18.10;;
43996;SDS011;34318;45.818;15.964;2022-10-16T01:54:27;25.60;;;19.67;;
43996;SDS011;34318;45.818;15.964;2022-10-16T01:56:54;23.48;;;19.35;;
43996;SDS011;34318;45.818;15.964;2022-10-16T01:59:23;25.75;;;20.00;;
43996;SDS011;34318;45.818;15.964;2022-10-16T02:01:52;21.42;;;18.25;;
43996;SDS011;34318;45.818;15.964;2022-10-16T02:04:29;23.70;;;19.50;;
43996;SDS011;34318;45.818;15.964;2022-10-16T02:06:58;20.77;;;18.58;;
43996;SDS011;34318;45.818;15.964;2022-10-16T02:09:26;20.58;;;18.33;;
43996;SDS011;34318;45.818;15.964;2022-10-16T02:11:53;21.90;;;18.52;;
43996;SDS011;34318;45.818;15.964;2022-10-16T02:14:21;22.60;;;18.02;;
43996;SDS011;34318;45.818;15.964;2022-10-16T02:16:50;20.98;;;17.58;;
43996;SDS011;34318;45.818;15.964;2022-10-16T02:19:18;20.45;;;18.27;;
43996;SDS011;34318;45.818;15.964;2022-10-16T02:24:16;21.98;;;18.27;;
43996;SDS011;34318;45.818;15.964;2022-10-16T02:26:51;19.15;;;17.20;;
43996;SDS011;34318;45.818;15.964;2022-10-16T02:29:22;19.50;;;17.42;;
43996;SDS011;34318;45.818;15.964;2022-10-16T02:31:52;19.88;;;17.90;;
43996;SDS011;34318;45.818;15.964;2022-10-16T02:34:20;19.05;;;17.13;;
43996;SDS011;34318;45.818;15.964;2022-10-16T02:36:48;19.58;;;17.50;;
43996;SDS011;34318;45.818;15.964;2022-10-16T02:39:16;19.35;;;17.45;;
43996;SDS011;34318;45.818;15.964;2022-10-16T02:41:44;18.05;;;16.15;;
43996;SDS011;34318;45.818;15.964;2022-10-16T02:44:11;20.50;;;18.35;;
43996;SDS011;34318;45.818;15.964;2022-10-16T02:46:38;21.25;;;17.65;;
43996;SDS011;34318;45.818;15.964;2022-10-16T02:49:05;18.77;;;16.80;;
43996;SDS011;34318;45.818;15.964;2022-10-16T02:51:32;18.55;;;16.70;;
43996;SDS011;34318;45.818;15.964;2022-10-16T02:54:01;18.83;;;17.02;;
43996;SDS011;34318;45.818;15.964;2022-10-16T02:56:28;18.90;;;17.00;;
43996;SDS011;34318;45.818;15.964;2022-10-16T02:58:56;20.48;;;18.23;;
43996;SDS011;34318;45.818;15.964;2022-10-16T03:01:24;19.23;;;16.88;;
43996;SDS011;34318;45.818;15.964;2022-10-16T03:03:51;20.15;;;17.55;;
43996;SDS011;34318;45.818;15.964;2022-10-16T03:06:18;18.15;;;16.30;;
43996;SDS011;34318;45.818;15.964;2022-10-16T03:08:45;19.20;;;17.30;;
43996;SDS011;34318;45.818;15.964;2022-10-16T03:11:13;18.38;;;15.93;;
43996;SDS011;34318;45.818;15.964;2022-10-16T03:13:40;20.45;;;17.10;;
43996;SDS011;34318;45.818;15.964;2022-10-16T03:16:07;19.92;;;17.20;;
43996;SDS011;34318;45.818;15.964;2022-10-16T03:18:34;18.88;;;16.67;;
43996;SDS011;34318;45.818;15.964;2022-10-16T03:21:02;19.73;;;17.83;;
43996;SDS011;34318;45.818;15.964;2022-10-16T03:23:29;17.67;;;15.98;;
43996;SDS011;34318;45.818;15.964;2022-10-16T03:26:01;19.17;;;17.27;;
43996;SDS011;34318;45.818;15.964;2022-10-16T03:28:28;17.98;;;15.43;;
43996;SDS011;34318;45.818;15.964;2022-10-16T03:30:55;18.15;;;16.35;;
43996;SDS011;34318;45.818;15.964;2022-10-16T03:33:22;19.42;;;17.33;;
43996;SDS011;34318;45.818;15.964;2022-10-16T03:35:54;20.45;;;16.10;;
43996;SDS011;34318;45.818;15.964;2022-10-16T03:38:21;17.08;;;15.27;;
43996;SDS011;34318;45.818;15.964;2022-10-16T03:40:48;17.98;;;16.27;;
43996;SDS011;34318;45.818;15.964;2022-10-16T03:43:15;17.67;;;15.98;;
43996;SDS011;34318;45.818;15.964;2022-10-16T03:45:43;17.25;;;15.55;;
43996;SDS011;34318;45.818;15.964;2022-10-16T03:48:10;16.98;;;15.25;;
43996;SDS011;34318;45.818;15.964;2022-10-16T03:50:37;17.88;;;16.05;;
43996;SDS011;34318;45.818;15.964;2022-10-16T03:53:04;17.80;;;16.10;;
43996;SDS011;34318;45.818;15.964;2022-10-16T03:55:31;17.98;;;15.95;;
43996;SDS011;34318;45.818;15.964;2022-10-16T03:57:59;16.02;;;14.52;;
43996;SDS011;34318;45.818;15.964;2022-10-16T04:00:26;17.73;;;15.85;;
43996;SDS011;34318;45.818;15.964;2022-10-16T04:02:53;17.50;;;15.80;;
43996;SDS011;34318;45.818;15.964;2022-10-16T04:05:21;18.52;;;16.63;;
43996;SDS011;34318;45.818;15.964;2022-10-16T04:07:48;18.20;;;16.42;;
43996;SDS011;34318;45.818;15.964;2022-10-16T04:10:15;17.17;;;15.45;;
43996;SDS011;34318;45.818;15.964;2022-10-16T04:12:42;18.15;;;16.20;;
43996;SDS011;34318;45.818;15.964;2022-10-16T04:15:09;17.48;;;15.77;;
43996;SDS011;34318;45.818;15.964;2022-10-16T04:17:37;17.25;;;15.65;;
43996;SDS011;34318;45.818;15.964;2022-10-16T04:20:04;16.92;;;15.27;;
43996;SDS011;34318;45.818;15.964;2022-10-16T04:22:31;18.20;;;16.35;;
43996;SDS011;34318;45.818;15.964;2022-10-16T04:24:58;16.75;;;14.73;;
43996;SDS011;34318;45.818;15.964;2022-10-16T04:27:25;17.52;;;15.88;;
43996;SDS011;34318;45.818;15.964;2022-10-16T04:29:53;17.20;;;15.40;;
43996;SDS011;34318;45.818;15.964;2022-10-16T04:32:20;16.88;;;15.35;;
43996;SDS011;34318;45.818;15.964;2022-10-16T04:34:48;17.00;;;15.30;;
43996;SDS011;34318;45.818;15.964;2022-10-16T04:37:18;16.15;;;14.65;;
43996;SDS011;34318;45.818;15.964;2022-10-16T04:39:46;16.50;;;14.82;;
43996;SDS011;34318;45.818;15.964;2022-10-16T04:42:13;16.17;;;14.60;;
43996;SDS011;34318;45.818;15.964;2022-10-16T04:44:40;17.38;;;15.77;;
43996;SDS011;34318;45.818;15.964;2022-10-16T04:47:07;16.20;;;14.68;;
43996;SDS011;34318;45.818;15.964;2022-10-16T04:49:35;16.25;;;14.77;;
43996;SDS011;34318;45.818;15.964;2022-10-16T04:52:02;16.27;;;14.75;;
43996;SDS011;34318;45.818;15.964;2022-10-16T04:54:30;15.60;;;14.13;;
43996;SDS011;34318;45.818;15.964;2022-10-16T04:56:57;16.40;;;14.68;;
43996;SDS011;34318;45.818;15.964;2022-10-16T04:59:24;19.33;;;16.55;;
43996;SDS011;34318;45.818;15.964;2022-10-16T05:01:51;18.02;;;15.65;;
43996;SDS011;34318;45.818;15.964;2022-10-16T05:04:19;17.27;;;15.60;;
43996;SDS011;34318;45.818;15.964;2022-10-16T05:06:47;17.15;;;15.45;;
43996;SDS011;34318;45.818;15.964;2022-10-16T05:09:14;16.75;;;15.15;;
43996;SDS011;34318;45.818;15.964;2022-10-16T05:11:41;18.63;;;16.50;;
43996;SDS011;34318;45.818;15.964;2022-10-16T05:14:09;18.45;;;16.67;;
43996;SDS011;34318;45.818;15.964;2022-10-16T05:16:41;16.25;;;14.75;;
43996;SDS011;34318;45.818;15.964;2022-10-16T05:19:08;16.98;;;15.35;;
43996;SDS011;34318;45.818;15.964;2022-10-16T05:21:55;16.38;;;14.57;;
43996;SDS011;34318;45.818;15.964;2022-10-16T05:24:22;16.70;;;14.60;;
43996;SDS011;34318;45.818;15.964;2022-10-16T05:26:50;17.42;;;15.82;;
43996;SDS011;34318;45.818;15.964;2022-10-16T05:29:17;16.73;;;14.80;;
43996;SDS011;34318;45.818;15.964;2022-10-16T05:31:44;16.42;;;14.93;;
43996;SDS011;34318;45.818;15.964;2022-10-16T05:34:11;16.90;;;15.35;;
43996;SDS011;34318;45.818;15.964;2022-10-16T05:36:39;15.95;;;14.35;;
43996;SDS011;34318;45.818;15.964;2022-10-16T05:39:06;16.63;;;15.02;;
43996;SDS011;34318;45.818;15.964;2022-10-16T05:41:33;17.45;;;15.85;;
43996;SDS011;34318;45.818;15.964;2022-10-16T05:44:03;17.00;;;15.40;;
43996;SDS011;34318;45.818;15.964;2022-10-16T05:46:31;16.02;;;14.52;;
43996;SDS011;34318;45.818;15.964;2022-10-16T05:48:59;15.13;;;13.63;;
43996;SDS011;34318;45.818;15.964;2022-10-16T05:51:26;16.58;;;14.98;;
43996;SDS011;34318;45.818;15.964;2022-10-16T05:53:53;14.52;;;13.25;;
43996;SDS011;34318;45.818;15.964;2022-10-16T05:56:20;15.48;;;14.15;;
43996;SDS011;34318;45.818;15.964;2022-10-16T05:58:47;15.32;;;13.88;;
43996;SDS011;34318;45.818;15.964;2022-10-16T06:01:15;16.40;;;14.95;;
43996;SDS011;34318;45.818;15.964;2022-10-16T06:03:43;14.50;;;13.20;;
43996;SDS011;34318;45.818;15.964;2022-10-16T06:06:16;15.00;;;13.60;;
43996;SDS011;34318;45.818;15.964;2022-10-16T06:08:53;16.50;;;14.80;;
43996;SDS011;34318;45.818;15.964;2022-10-16T06:11:22;16.25;;;14.60;;
43996;SDS011;34318;45.818;15.964;2022-10-16T06:13:50;16.42;;;14.98;;
43996;SDS011;34318;45.818;15.964;2022-10-16T06:16:18;16.38;;;14.98;;
43996;SDS011;34318;45.818;15.964;2022-10-16T06:18:45;16.65;;;15.18;;
43996;SDS011;34318;45.818;15.964;2022-10-16T06:21:23;16.25;;;14.85;;
43996;SDS011;34318;45.818;15.964;2022-10-16T06:23:56;16.60;;;15.00;;
43996;SDS011;34318;45.818;15.964;2022-10-16T06:26:25;17.45;;;15.75;;
43996;SDS011;34318;45.818;15.964;2022-10-16T06:28:56;15.40;;;13.98;;
43996;SDS011;34318;45.818;15.964;2022-10-16T06:31:24;16.55;;;15.02;;
43996;SDS011;34318;45.818;15.964;2022-10-16T06:33:54;18.65;;;16.80;;
43996;SDS011;34318;45.818;15.964;2022-10-16T06:36:22;17.00;;;15.50;;
43996;SDS011;34318;45.818;15.964;2022-10-16T06:38:50;17.38;;;15.82;;
43996;SDS011;34318;45.818;15.964;2022-10-16T06:41:18;18.05;;;16.15;;
43996;SDS011;34318;45.818;15.964;2022-10-16T06:43:46;17.63;;;15.90;;
43996;SDS011;34318;45.818;15.964;2022-10-16T06:46:14;17.23;;;15.63;;
43996;SDS011;34318;45.818;15.964;2022-10-16T06:48:42;16.60;;;15.13;;
43996;SDS011;34318;45.818;15.964;2022-10-16T06:51:14;18.65;;;16.85;;
43996;SDS011;34318;45.818;15.964;2022-10-16T06:53:42;18.15;;;16.45;;
43996;SDS011;34318;45.818;15.964;2022-10-16T06:56:28;18.55;;;16.70;;
43996;SDS011;34318;45.818;15.964;2022-10-16T06:58:58;17.80;;;16.17;;
43996;SDS011;34318;45.818;15.964;2022-10-16T07:01:27;17.60;;;16.00;;
43996;SDS011;34318;45.818;15.964;2022-10-16T07:03:54;18.85;;;17.20;;
43996;SDS011;34318;45.818;15.964;2022-10-16T07:06:22;18.65;;;16.85;;
43996;SDS011;34318;45.818;15.964;2022-10-16T07:08:49;15.73;;;14.23;;
43996;SDS011;34318;45.818;15.964;2022-10-16T07:11:21;17.10;;;15.35;;
43996;SDS011;34318;45.818;15.964;2022-10-16T07:13:49;17.20;;;15.48;;
43996;SDS011;34318;45.818;15.964;2022-10-16T07:16:22;18.13;;;16.60;;
43996;SDS011;34318;45.818;15.964;2022-10-16T07:18:50;17.38;;;15.60;;
43996;SDS011;34318;45.818;15.964;2022-10-16T07:21:23;16.05;;;14.40;;
43996;SDS011;34318;45.818;15.964;2022-10-16T07:23:52;16.17;;;14.55;;
43996;SDS011;34318;45.818;15.964;2022-10-16T07:26:20;17.98;;;15.93;;
43996;SDS011;34318;45.818;15.964;2022-10-16T07:28:49;16.60;;;14.63;;
43996;SDS011;34318;45.818;15.964;2022-10-16T07:31:17;17.75;;;14.00;;
43996;SDS011;34318;45.818;15.964;2022-10-16T07:33:46;16.92;;;15.02;;
43996;SDS011;34318;45.818;15.964;2022-10-16T07:36:17;18.35;;;15.23;;
43996;SDS011;34318;45.818;15.964;2022-10-16T07:38:44;15.48;;;13.98;;
43996;SDS011;34318;45.818;15.964;2022-10-16T07:41:13;15.70;;;14.10;;
43996;SDS011;34318;45.818;15.964;2022-10-16T07:43:45;17.88;;;15.63;;
43996;SDS011;34318;45.818;15.964;2022-10-16T07:46:12;20.60;;;18.75;;
43996;SDS011;34318;45.818;15.964;2022-10-16T07:48:40;17.27;;;15.55;;
43996;SDS011;34318;45.818;15.964;2022-10-16T07:51:11;18.17;;;16.48;;
43996;SDS011;34318;45.818;15.964;2022-10-16T07:53:40;16.88;;;15.18;;
43996;SDS011;34318;45.818;15.964;2022-10-16T07:56:07;18.38;;;16.67;;
43996;SDS011;34318;45.818;15.964;2022-10-16T07:58:35;19.42;;;17.52;;
43996;SDS011;34318;45.818;15.964;2022-10-16T08:01:09;19.30;;;17.27;;
43996;SDS011;34318;45.818;15.964;2022-10-16T08:03:37;21.50;;;16.80;;
43996;SDS011;34318;45.818;15.964;2022-10-16T08:06:04;19.80;;;17.75;;
43996;SDS011;34318;45.818;15.964;2022-10-16T08:08:31;20.05;;;18.17;;
43996;SDS011;34318;45.818;15.964;2022-10-16T08:10:59;21.83;;;17.73;;
43996;SDS011;34318;45.818;15.964;2022-10-16T08:13:26;20.55;;;18.52;;
43996;SDS011;34318;45.818;15.964;2022-10-16T08:15:53;20.90;;;18.80;;
43996;SDS011;34318;45.818;15.964;2022-10-16T08:18:21;20.63;;;18.63;;
43996;SDS011;34318;45.818;15.964;2022-10-16T08:20:54;21.13;;;17.60;;
43996;SDS011;34318;45.818;15.964;2022-10-16T08:23:23;20.02;;;18.08;;
43996;SDS011;34318;45.818;15.964;2022-10-16T08:25:55;20.38;;;18.33;;
43996;SDS011;34318;45.818;15.964;2022-10-16T08:28:22;24.73;;;19.00;;
43996;SDS011;34318;45.818;15.964;2022-10-16T08:30:50;19.83;;;17.95;;
43996;SDS011;34318;45.818;15.964;2022-10-16T08:33:17;18.92;;;17.00;;
43996;SDS011;34318;45.818;15.964;2022-10-16T08:35:53;18.70;;;17.08;;
43996;SDS011;34318;45.818;15.964;2022-10-16T08:38:21;20.98;;;16.70;;
43996;SDS011;34318;45.818;15.964;2022-10-16T08:40:48;18.40;;;16.38;;
43996;SDS011;34318;45.818;15.964;2022-10-16T08:48:36;16.77;;;15.10;;
43996;SDS011;34318;45.818;15.964;2022-10-16T08:51:07;18.58;;;16.75;;
43996;SDS011;34318;45.818;15.964;2022-10-16T08:53:41;18.67;;;16.95;;
43996;SDS011;34318;45.818;15.964;2022-10-16T08:56:10;24.38;;;21.80;;
43996;SDS011;34318;45.818;15.964;2022-10-16T08:58:37;35.03;;;26.45;;
43996;SDS011;34318;45.818;15.964;2022-10-16T09:01:09;39.30;;;29.30;;
43996;SDS011;34318;45.818;15.964;2022-10-16T09:08:55;24.35;;;20.55;;
43996;SDS011;34318;45.818;15.964;2022-10-16T09:14:16;39.90;;;35.67;;
43996;SDS011;34318;45.818;15.964;2022-10-16T09:16:46;35.53;;;32.20;;
43996;SDS011;34318;45.818;15.964;2022-10-16T09:21:45;31.88;;;28.85;;
43996;SDS011;34318;45.818;15.964;2022-10-16T09:24:15;32.95;;;29.20;;
43996;SDS011;34318;45.818;15.964;2022-10-16T09:26:42;32.28;;;29.08;;
43996;SDS011;34318;45.818;15.964;2022-10-16T09:29:13;35.33;;;31.80;;
43996;SDS011;34318;45.818;15.964;2022-10-16T09:31:40;37.63;;;34.00;;
43996;SDS011;34318;45.818;15.964;2022-10-16T09:34:52;36.97;;;33.22;;
43996;SDS011;34318;45.818;15.964;2022-10-16T09:36:59;28.05;;;25.35;;
43996;SDS011;34318;45.818;15.964;2022-10-16T09:39:28;24.88;;;22.33;;
43996;SDS011;34318;45.818;15.964;2022-10-16T09:41:55;25.15;;;22.83;;
43996;SDS011;34318;45.818;15.964;2022-10-16T09:44:24;31.67;;;28.77;;
43996;SDS011;34318;45.818;15.964;2022-10-16T09:49:29;32.50;;;29.30;;
43996;SDS011;34318;45.818;15.964;2022-10-16T09:52:12;32.78;;;29.50;;
43996;SDS011;34318;45.818;15.964;2022-10-16T09:54:53;32.80;;;29.70;;
43996;SDS011;34318;45.818;15.964;2022-10-16T09:57:24;29.33;;;26.63;;
43996;SDS011;34318;45.818;15.964;2022-10-16T09:59:56;29.98;;;26.85;;
43996;SDS011;34318;45.818;15.964;2022-10-16T10:04:57;36.50;;;32.75;;
43996;SDS011;34318;45.818;15.964;2022-10-16T10:07:36;36.88;;;33.25;;
43996;SDS011;34318;45.818;15.964;2022-10-16T10:10:05;38.97;;;35.17;;
43996;SDS011;34318;45.818;15.964;2022-10-16T10:12:33;40.83;;;32.78;;
43996;SDS011;34318;45.818;15.964;2022-10-16T10:15:06;39.50;;;35.22;;
43996;SDS011;34318;45.818;15.964;2022-10-16T10:17:34;39.22;;;35.28;;
43996;SDS011;34318;45.818;15.964;2022-10-16T10:22:53;39.05;;;35.05;;
43996;SDS011;34318;45.818;15.964;2022-10-16T10:30:41;72.13;;;65.47;;
43996;SDS011;34318;45.818;15.964;2022-10-16T10:38:45;56.13;;;51.17;;
43996;SDS011;34318;45.818;15.964;2022-10-16T10:49:15;47.05;;;42.78;;
43996;SDS011;34318;45.818;15.964;2022-10-16T10:54:33;44.75;;;40.75;;
43996;SDS011;34318;45.818;15.964;2022-10-16T10:57:06;47.33;;;43.05;;
43996;SDS011;34318;45.818;15.964;2022-10-16T11:04:53;42.35;;;38.47;;
43996;SDS011;34318;45.818;15.964;2022-10-16T11:07:27;42.83;;;38.63;;
43996;SDS011;34318;45.818;15.964;2022-10-16T11:10:03;43.55;;;39.50;;
43996;SDS011;34318;45.818;15.964;2022-10-16T11:12:34;40.08;;;36.33;;
43996;SDS011;34318;45.818;15.964;2022-10-16T11:15:12;39.83;;;36.05;;
43996;SDS011;34318;45.818;15.964;2022-10-16T11:17:42;40.40;;;36.45;;
43996;SDS011;34318;45.818;15.964;2022-10-16T11:20:16;39.83;;;36.03;;
43996;SDS011;34318;45.818;15.964;2022-10-16T11:22:50;41.40;;;37.20;;
43996;SDS011;34318;45.818;15.964;2022-10-16T11:27:50;38.90;;;35.33;;
43996;SDS011;34318;45.818;15.964;2022-10-16T11:30:20;38.45;;;34.88;;
43996;SDS011;34318;45.818;15.964;2022-10-16T11:35:19;39.55;;;35.85;;
43996;SDS011;34318;45.818;15.964;2022-10-16T11:37:49;38.97;;;34.95;;
43996;SDS011;34318;45.818;15.964;2022-10-16T11:40:25;38.88;;;34.85;;
43996;SDS011;34318;45.818;15.964;2022-10-16T11:42:57;36.78;;;33.72;;
43996;SDS011;34318;45.818;15.964;2022-10-16T11:45:39;37.45;;;33.85;;
43996;SDS011;34318;45.818;15.964;2022-10-16T11:50:49;35.30;;;31.85;;
43996;SDS011;34318;45.818;15.964;2022-10-16T11:53:24;37.30;;;33.83;;
43996;SDS011;34318;45.818;15.964;2022-10-16T11:55:55;36.00;;;32.25;;
43996;SDS011;34318;45.818;15.964;2022-10-16T11:58:50;36.05;;;32.35;;
43996;SDS011;34318;45.818;15.964;2022-10-16T12:01:38;32.65;;;29.77;;
43996;SDS011;34318;45.818;15.964;2022-10-16T12:04:17;37.10;;;33.65;;
43996;SDS011;34318;45.818;15.964;2022-10-16T12:06:48;37.80;;;34.20;;
43996;SDS011;34318;45.818;15.964;2022-10-16T12:09:20;34.42;;;31.10;;
43996;SDS011;34318;45.818;15.964;2022-10-16T12:11:48;35.55;;;32.33;;
43996;SDS011;34318;45.818;15.964;2022-10-16T12:16:53;145.20;;;130.75;;
43996;SDS011;34318;45.818;15.964;2022-10-16T12:19:21;203.57;;;181.73;;
43996;SDS011;34318;45.818;15.964;2022-10-16T12:21:48;195.77;;;169.23;;
43996;SDS011;34318;45.818;15.964;2022-10-16T12:26:56;139.18;;;118.35;;
43996;SDS011;34318;45.818;15.964;2022-10-16T12:31:50;114.22;;;101.75;;
43996;SDS011;34318;45.818;15.964;2022-10-16T12:34:31;113.18;;;95.60;;
43996;SDS011;34318;45.818;15.964;2022-10-16T12:37:14;94.85;;;84.30;;
43996;SDS011;34318;45.818;15.964;2022-10-16T12:39:46;90.80;;;81.03;;
43996;SDS011;34318;45.818;15.964;2022-10-16T12:42:20;92.70;;;77.78;;
43996;SDS011;34318;45.818;15.964;2022-10-16T12:44:48;84.40;;;75.35;;
43996;SDS011;34318;45.818;15.964;2022-10-16T12:49:58;83.60;;;71.18;;
43996;SDS011;34318;45.818;15.964;2022-10-16T12:55:01;68.38;;;60.95;;
43996;SDS011;34318;45.818;15.964;2022-10-16T13:05:35;197.73;;;179.57;;
43996;SDS011;34318;45.818;15.964;2022-10-16T13:13:29;123.07;;;111.97;;
43996;SDS011;34318;45.818;15.964;2022-10-16T13:18:28;155.65;;;141.00;;
43996;SDS011;34318;45.818;15.964;2022-10-16T13:21:03;193.98;;;176.43;;
43996;SDS011;34318;45.818;15.964;2022-10-16T13:29:00;135.48;;;122.50;;
43996;SDS011;34318;45.818;15.964;2022-10-16T13:31:27;126.88;;;115.35;;
43996;SDS011;34318;45.818;15.964;2022-10-16T13:33:55;120.10;;;109.20;;
43996;SDS011;34318;45.818;15.964;2022-10-16T13:36:26;116.57;;;106.38;;
43996;SDS011;34318;45.818;15.964;2022-10-16T13:41:39;217.03;;;197.93;;
43996;SDS011;34318;45.818;15.964;2022-10-16T13:44:14;211.52;;;193.15;;
43996;SDS011;34318;45.818;15.964;2022-10-16T13:46:42;161.52;;;146.90;;
43996;SDS011;34318;45.818;15.964;2022-10-16T13:49:16;144.05;;;130.70;;
43996;SDS011;34318;45.818;15.964;2022-10-16T13:51:56;119.20;;;108.03;;
43996;SDS011;34318;45.818;15.964;2022-10-16T13:54:26;105.38;;;95.45;;
43996;SDS011;34318;45.818;15.964;2022-10-16T13:57:04;92.50;;;84.03;;
43996;SDS011;34318;45.818;15.964;2022-10-16T13:59:52;83.15;;;75.50;;
43996;SDS011;34318;45.818;15.964;2022-10-16T14:02:22;76.95;;;69.63;;
43996;SDS011;34318;45.818;15.964;2022-10-16T14:04:53;100.82;;;91.60;;
43996;SDS011;34318;45.818;15.964;2022-10-16T14:07:25;137.77;;;124.97;;
43996;SDS011;34318;45.818;15.964;2022-10-16T14:09:53;162.02;;;147.88;;
43996;SDS011;34318;45.818;15.964;2022-10-16T14:12:21;135.20;;;123.15;;
43996;SDS011;34318;45.818;15.964;2022-10-16T14:14:53;117.57;;;106.85;;
43996;SDS011;34318;45.818;15.964;2022-10-16T14:19:52;94.15;;;85.30;;
43996;SDS011;34318;45.818;15.964;2022-10-16T14:22:33;84.55;;;76.57;;
43996;SDS011;34318;45.818;15.964;2022-10-16T14:25:02;94.43;;;84.28;;
43996;SDS011;34318;45.818;15.964;2022-10-16T14:27:40;77.07;;;68.80;;
43996;SDS011;34318;45.818;15.964;2022-10-16T14:32:34;62.75;;;56.38;;
43996;SDS011;34318;45.818;15.964;2022-10-16T14:35:02;54.63;;;48.83;;
43996;SDS011;34318;45.818;15.964;2022-10-16T14:37:29;50.33;;;45.33;;
43996;SDS011;34318;45.818;15.964;2022-10-16T14:39:57;46.17;;;41.78;;
43996;SDS011;34318;45.818;15.964;2022-10-16T14:42:24;45.67;;;41.33;;
43996;SDS011;34318;45.818;15.964;2022-10-16T14:44:52;40.75;;;36.67;;
43996;SDS011;34318;45.818;15.964;2022-10-16T14:47:21;35.47;;;31.98;;
43996;SDS011;34318;45.818;15.964;2022-10-16T14:49:52;33.22;;;30.05;;
43996;SDS011;34318;45.818;15.964;2022-10-16T14:52:25;39.67;;;35.83;;
43996;SDS011;34318;45.818;15.964;2022-10-16T14:54:52;40.22;;;36.15;;
43996;SDS011;34318;45.818;15.964;2022-10-16T14:57:23;38.90;;;35.05;;
43996;SDS011;34318;45.818;15.964;2022-10-16T14:59:51;45.28;;;40.60;;
43996;SDS011;34318;45.818;15.964;2022-10-16T15:04:52;46.10;;;41.70;;
43996;SDS011;34318;45.818;15.964;2022-10-16T15:07:20;48.53;;;43.85;;
43996;SDS011;34318;45.818;15.964;2022-10-16T15:09:47;54.95;;;49.42;;
43996;SDS011;34318;45.818;15.964;2022-10-16T15:12:15;58.70;;;52.85;;
43996;SDS011;34318;45.818;15.964;2022-10-16T15:14:42;64.88;;;58.42;;
43996;SDS011;34318;45.818;15.964;2022-10-16T15:17:10;60.88;;;55.03;;
43996;SDS011;34318;45.818;15.964;2022-10-16T15:19:37;60.90;;;55.17;;
43996;SDS011;34318;45.818;15.964;2022-10-16T15:22:05;59.83;;;54.45;;
43996;SDS011;34318;45.818;15.964;2022-10-16T15:24:33;59.17;;;53.67;;
43996;SDS011;34318;45.818;15.964;2022-10-16T15:27:00;56.05;;;50.38;;
43996;SDS011;34318;45.818;15.964;2022-10-16T15:29:27;54.47;;;49.15;;
43996;SDS011;34318;45.818;15.964;2022-10-16T15:31:54;55.95;;;50.58;;
43996;SDS011;34318;45.818;15.964;2022-10-16T15:34:21;60.35;;;54.40;;
43996;SDS011;34318;45.818;15.964;2022-10-16T15:36:48;57.88;;;52.35;;
43996;SDS011;34318;45.818;15.964;2022-10-16T15:39:17;58.72;;;53.33;;
43996;SDS011;34318;45.818;15.964;2022-10-16T15:41:45;59.97;;;54.22;;
43996;SDS011;34318;45.818;15.964;2022-10-16T15:44:17;58.38;;;52.40;;
43996;SDS011;34318;45.818;15.964;2022-10-16T15:46:45;59.10;;;53.10;;
43996;SDS011;34318;45.818;15.964;2022-10-16T15:49:12;58.50;;;52.78;;
43996;SDS011;34318;45.818;15.964;2022-10-16T15:51:40;58.00;;;52.00;;
43996;SDS011;34318;45.818;15.964;2022-10-16T15:54:08;56.00;;;50.33;;
43996;SDS011;34318;45.818;15.964;2022-10-16T15:56:35;54.90;;;49.47;;
43996;SDS011;34318;45.818;15.964;2022-10-16T15:59:03;55.80;;;50.17;;
43996;SDS011;34318;45.818;15.964;2022-10-16T16:01:34;53.33;;;48.08;;
43996;SDS011;34318;45.818;15.964;2022-10-16T16:04:01;54.13;;;48.58;;
43996;SDS011;34318;45.818;15.964;2022-10-16T16:06:40;53.67;;;47.97;;
43996;SDS011;34318;45.818;15.964;2022-10-16T16:09:11;51.85;;;46.72;;
43996;SDS011;34318;45.818;15.964;2022-10-16T16:11:38;53.28;;;47.60;;
43996;SDS011;34318;45.818;15.964;2022-10-16T16:14:06;54.67;;;46.97;;